Time;durP1;ratioP1;P1;durP2;ratioP2;P2;SDS_P1;SDS_P2;PMS_P1;PMS_P2;Temp;Humidity;BMP_temperature;BMP_pressure;BME280_temperature;BME280_humidity;BME280_pressure;Samples;Min_cycle;Max_cycle;Signal;HPM_P1;HPM_P2
2022/07/07 04:01:50;;;;;;;1999.90;999.90;;;;;;;;;;6271067;22;20224;-70
2022/07/07 04:04:35;;;;;;;1999.90;999.90;;;;;;;;;;6307639;22;20167;-70
2022/07/07 04:07:21;;;;;;;1999.90;999.90;;;;;;;;;;6307806;22;20162;-70
2022/07/07 04:10:07;;;;;;;1999.90;999.90;;;;;;;;;;6308494;22;20180;-70
2022/07/07 04:12:53;;;;;;;1999.90;999.90;;;;;;;;;;6276929;22;20167;-70
2022/07/07 04:15:39;;;;;;;1999.90;999.90;;;;;;;;;;6277307;22;20184;-70
2022/07/07 04:18:25;;;;;;;1999.90;999.90;;;;;;;;;;6276142;22;20231;-70
2022/07/07 04:21:10;;;;;;;1999.90;999.90;;;;;;;;;;6275077;22;20204;-69
2022/07/07 04:23:56;;;;;;;1999.90;999.90;;;;;;;;;;6273403;22;20358;-70
2022/07/07 04:26:41;;;;;;;1999.90;999.90;;;;;;;;;;6275225;22;20207;-70
2022/07/07 04:29:26;;;;;;;1999.90;999.90;;;;;;;;;;6274843;22;20631;-70
2022/07/07 04:32:11;;;;;;;1999.90;999.90;;;;;;;;;;6275356;22;20599;-70
2022/07/07 04:34:57;;;;;;;1999.90;999.90;;;;;;;;;;6274993;22;20168;-70
2022/07/07 04:37:42;;;;;;;1999.90;999.90;;;;;;;;;;6274732;22;20486;-70
2022/07/07 04:40:27;;;;;;;1999.90;999.90;;;;;;;;;;6274945;22;20210;-69
2022/07/07 04:43:12;;;;;;;1999.90;999.90;;;;;;;;;;6275118;22;20252;-70
2022/07/07 04:45:56;;;;;;;1999.90;999.90;;;;;;;;;;6275086;22;20563;-70
2022/07/07 04:48:42;;;;;;;1999.90;999.90;;;;;;;;;;6274725;22;20164;-70
2022/07/07 04:51:28;;;;;;;1999.90;999.90;;;;;;;;;;6274760;22;20247;-70
2022/07/07 04:54:14;;;;;;;1999.90;999.90;;;;;;;;;;6274915;22;20172;-70
2022/07/07 04:56:58;;;;;;;1999.90;999.90;;;;;;;;;;6275556;22;20517;-69
2022/07/07 04:59:43;;;;;;;1999.90;999.90;;;;;;;;;;6275842;22;20165;-70
2022/07/07 05:02:28;;;;;;;1999.90;999.90;;;;;;;;;;6275164;22;20286;-70
2022/07/07 05:05:14;;;;;;;1999.90;999.90;;;;;;;;;;6275796;22;20192;-69
2022/07/07 05:08:00;;;;;;;1999.90;999.90;;;;;;;;;;6275574;22;20500;-69
2022/07/07 05:10:47;;;;;;;1999.90;999.90;;;;;;;;;;6275147;22;20371;-69
2022/07/07 05:13:32;;;;;;;1999.90;999.90;;;;;;;;;;6275601;22;20188;-70
2022/07/07 05:16:18;;;;;;;1999.90;999.90;;;;;;;;;;6275890;22;20168;-69
2022/07/07 05:19:04;;;;;;;1999.90;999.90;;;;;;;;;;6274860;22;20274;-70
2022/07/07 05:21:49;;;;;;;1999.90;999.90;;;;;;;;;;6274587;22;20242;-70
2022/07/07 05:24:36;;;;;;;1999.90;999.90;;;;;;;;;;6275337;22;20250;-70
2022/07/07 05:27:21;;;;;;;1999.90;999.90;;;;;;;;;;6274296;22;20802;-70
2022/07/07 05:30:06;;;;;;;1999.90;999.90;;;;;;;;;;6274706;22;20670;-70
2022/07/07 05:32:52;;;;;;;1999.90;999.90;;;;;;;;;;6274675;22;20180;-70
2022/07/07 05:35:37;;;;;;;1999.90;999.90;;;;;;;;;;6275758;22;20164;-69
2022/07/07 05:38:21;;;;;;;1999.90;999.90;;;;;;;;;;6275148;22;20235;-70
2022/07/07 05:41:08;;;;;;;1999.90;999.90;;;;;;;;;;6275068;22;20565;-70
2022/07/07 05:43:53;;;;;;;1999.90;999.90;;;;;;;;;;6275671;22;20170;-69
2022/07/07 05:46:38;;;;;;;1999.90;999.90;;;;;;;;;;6274099;22;20243;-69
2022/07/07 05:49:22;;;;;;;1999.90;999.90;;;;;;;;;;6274035;22;20207;-69
2022/07/07 05:52:08;;;;;;;1999.90;999.90;;;;;;;;;;6274241;22;20243;-70
2022/07/07 05:54:53;;;;;;;1999.90;999.90;;;;;;;;;;6274400;22;20235;-70
2022/07/07 05:57:39;;;;;;;1999.90;999.90;;;;;;;;;;6272782;22;20191;-69
2022/07/07 06:00:24;;;;;;;1999.90;999.90;;;;;;;;;;6272410;22;20371;-68
2022/07/07 06:03:13;;;;;;;1999.90;999.90;;;;;;;;;;6279291;22;20220;-70
2022/07/07 06:05:58;;;;;;;1999.90;999.90;;;;;;;;;;6294261;22;20160;-70
2022/07/07 06:08:44;;;;;;;1999.90;999.90;;;;;;;;;;6299373;22;20180;-71
2022/07/07 06:11:28;;;;;;;1999.90;999.90;;;;;;;;;;6300934;22;20246;-71
2022/07/07 06:14:15;;;;;;;1999.90;999.90;;;;;;;;;;6296716;22;20367;-70
2022/07/07 06:17:00;;;;;;;1999.90;999.90;;;;;;;;;;6300242;22;20373;-69
2022/07/07 06:19:45;;;;;;;1999.90;999.90;;;;;;;;;;6282901;22;20235;-68
2022/07/07 06:22:30;;;;;;;1999.90;999.90;;;;;;;;;;6283138;22;20215;-68
2022/07/07 06:25:15;;;;;;;1999.90;999.90;;;;;;;;;;6279938;22;20167;-69
2022/07/07 06:28:00;;;;;;;1999.90;999.90;;;;;;;;;;6279485;22;20164;-68
2022/07/07 06:30:46;;;;;;;1999.90;999.90;;;;;;;;;;6278530;22;20272;-69
2022/07/07 06:33:31;;;;;;;1999.90;999.90;;;;;;;;;;6279037;22;20211;-69
2022/07/07 06:36:16;;;;;;;1999.90;999.90;;;;;;;;;;6281956;22;20203;-68
2022/07/07 06:39:01;;;;;;;1999.90;999.90;;;;;;;;;;6282281;22;20188;-68
2022/07/07 06:41:46;;;;;;;1999.90;999.90;;;;;;;;;;6280608;22;20247;-69
2022/07/07 06:44:32;;;;;;;1999.90;999.90;;;;;;;;;;6281637;22;20238;-69
2022/07/07 06:47:18;;;;;;;1999.90;999.90;;;;;;;;;;6281610;22;20372;-69
2022/07/07 06:50:04;;;;;;;1999.90;999.90;;;;;;;;;;6277378;22;20168;-69
2022/07/07 06:52:49;;;;;;;1999.90;999.90;;;;;;;;;;6274814;22;20179;-68
2022/07/07 06:55:34;;;;;;;1999.90;999.90;;;;;;;;;;6276499;22;20168;-68
2022/07/07 06:58:19;;;;;;;1999.90;999.90;;;;;;;;;;6274127;22;20642;-69
2022/07/07 07:01:04;;;;;;;1999.90;999.90;;;;;;;;;;6273972;22;20558;-68
2022/07/07 07:03:50;;;;;;;1999.90;999.90;;;;;;;;;;6272167;22;20371;-69
2022/07/07 07:06:35;;;;;;;1999.90;999.90;;;;;;;;;;6273752;22;20612;-68
2022/07/07 07:09:20;;;;;;;1999.90;999.90;;;;;;;;;;6272968;22;20170;-70
2022/07/07 07:12:05;;;;;;;1999.90;999.90;;;;;;;;;;6271711;22;20595;-68
2022/07/07 07:14:50;;;;;;;1999.90;999.90;;;;;;;;;;6272971;22;20497;-69
2022/07/07 07:17:35;;;;;;;1999.90;999.90;;;;;;;;;;6273045;22;20226;-68
2022/07/07 07:20:22;;;;;;;1999.90;999.90;;;;;;;;;;6272598;22;20164;-69
2022/07/07 07:23:07;;;;;;;1999.90;999.90;;;;;;;;;;6272507;22;20627;-69
2022/07/07 07:25:52;;;;;;;1999.90;999.90;;;;;;;;;;6271092;22;20179;-68
2022/07/07 07:28:37;;;;;;;1999.90;999.90;;;;;;;;;;6271331;22;20498;-68
2022/07/07 07:31:22;;;;;;;1999.90;999.90;;;;;;;;;;6271642;22;20202;-69
2022/07/07 07:34:08;;;;;;;1999.90;999.90;;;;;;;;;;6272787;22;20262;-69
2022/07/07 07:36:54;;;;;;;1999.90;999.90;;;;;;;;;;6276860;22;20168;-71
2022/07/07 07:39:39;;;;;;;1999.90;999.90;;;;;;;;;;6297466;22;20191;-68
2022/07/07 07:42:24;;;;;;;1999.90;999.90;;;;;;;;;;6281860;22;20646;-68
2022/07/07 07:45:12;;;;;;;1999.90;999.90;;;;;;;;;;6274734;22;20736;-68
2022/07/07 07:47:58;;;;;;;1999.90;999.90;;;;;;;;;;6278286;22;20161;-68
2022/07/07 07:50:42;;;;;;;1999.90;999.90;;;;;;;;;;6273905;22;20380;-68
2022/07/07 07:53:28;;;;;;;1999.90;999.90;;;;;;;;;;6273594;22;20171;-68
2022/07/07 07:56:13;;;;;;;1999.90;999.90;;;;;;;;;;6275843;22;20178;-68
2022/07/07 07:58:58;;;;;;;1999.90;999.90;;;;;;;;;;6295847;22;20210;-68
2022/07/07 08:01:43;;;;;;;1999.90;999.90;;;;;;;;;;6296110;22;20258;-67
2022/07/07 08:04:28;;;;;;;1999.90;999.90;;;;;;;;;;6281354;22;20174;-69
2022/07/07 08:07:13;;;;;;;1999.90;999.90;;;;;;;;;;6296409;22;20188;-68
2022/07/07 08:10:00;;;;;;;1999.90;999.90;;;;;;;;;;6290107;22;20216;-69
2022/07/07 08:12:47;;;;;;;1999.90;999.90;;;;;;;;;;6287768;22;20226;-69
2022/07/07 08:15:32;;;;;;;1999.90;999.90;;;;;;;;;;6285259;22;20514;-68
2022/07/07 08:18:17;;;;;;;1999.90;999.90;;;;;;;;;;6285605;22;20246;-70
2022/07/07 08:21:02;;;;;;;1999.90;999.90;;;;;;;;;;6301792;22;20210;-70
2022/07/07 08:23:47;;;;;;;1999.90;999.90;;;;;;;;;;6299844;22;20169;-68
2022/07/07 08:26:33;;;;;;;1999.90;999.90;;;;;;;;;;6284037;22;20187;-67
2022/07/07 08:29:19;;;;;;;1999.90;999.90;;;;;;;;;;6279098;22;20214;-67
2022/07/07 08:32:04;;;;;;;1999.90;999.90;;;;;;;;;;6274706;22;20265;-68
2022/07/07 08:34:49;;;;;;;1999.90;999.90;;;;;;;;;;6282184;22;20185;-66
2022/07/07 08:37:34;;;;;;;1999.90;999.90;;;;;;;;;;6273512;22;20552;-67
2022/07/07 08:40:20;;;;;;;1999.90;999.90;;;;;;;;;;6271907;22;20364;-67
2022/07/07 08:43:06;;;;;;;1999.90;999.90;;;;;;;;;;6272826;22;20174;-67
2022/07/07 08:45:52;;;;;;;1999.90;999.90;;;;;;;;;;6273274;22;20978;-69
2022/07/07 08:48:37;;;;;;;1999.90;999.90;;;;;;;;;;6278688;22;20165;-68
2022/07/07 08:51:22;;;;;;;1999.90;999.90;;;;;;;;;;6291708;22;20227;-68
2022/07/07 08:54:07;;;;;;;1999.90;999.90;;;;;;;;;;6292558;22;20228;-68
2022/07/07 08:56:52;;;;;;;1999.90;999.90;;;;;;;;;;6290258;22;20225;-68
2022/07/07 08:59:39;;;;;;;1999.90;999.90;;;;;;;;;;6288151;22;20194;-69
2022/07/07 09:02:24;;;;;;;1999.90;999.90;;;;;;;;;;6294542;22;20237;-69
2022/07/07 09:05:09;;;;;;;1999.90;999.90;;;;;;;;;;6278880;22;20175;-68
2022/07/07 09:07:55;;;;;;;1999.90;999.90;;;;;;;;;;6287448;22;20562;-69
2022/07/07 09:10:42;;;;;;;1999.90;999.90;;;;;;;;;;6276880;22;20289;-69
2022/07/07 09:13:28;;;;;;;1999.90;999.90;;;;;;;;;;6272947;22;20520;-70
2022/07/07 09:16:16;;;;;;;1999.90;999.90;;;;;;;;;;6273639;22;20170;-69
2022/07/07 09:19:01;;;;;;;1999.90;999.90;;;;;;;;;;6273213;22;20530;-67
2022/07/07 09:21:46;;;;;;;1999.90;999.90;;;;;;;;;;6272402;22;20212;-67
2022/07/07 09:24:31;;;;;;;1999.90;999.90;;;;;;;;;;6273320;22;20167;-67
2022/07/07 09:27:16;;;;;;;1999.90;999.90;;;;;;;;;;6272158;22;20375;-66
2022/07/07 09:30:01;;;;;;;1999.90;999.90;;;;;;;;;;6275641;22;20162;-67
2022/07/07 09:32:48;;;;;;;1999.90;999.90;;;;;;;;;;6274541;22;20169;-67
2022/07/07 09:38:37;;;;;;;1999.90;999.90;;;;;;;;;;6271346;22;20231;-67
2022/07/07 09:41:22;;;;;;;1999.90;999.90;;;;;;;;;;6272270;22;20254;-67
2022/07/07 09:44:08;;;;;;;1999.90;999.90;;;;;;;;;;6272288;22;20223;-67
2022/07/07 09:47:08;;;;;;;1999.90;999.90;;;;;;;;;;6272253;22;20248;-67
2022/07/07 09:50:02;;;;;;;1999.90;999.90;;;;;;;;;;6272049;22;20203;-66
2022/07/07 09:52:47;;;;;;;1999.90;999.90;;;;;;;;;;6272146;22;20167;-67
2022/07/07 09:55:32;;;;;;;1999.90;999.90;;;;;;;;;;6272394;22;20268;-67
2022/07/07 09:58:18;;;;;;;1999.90;999.90;;;;;;;;;;6270440;22;20471;-67
2022/07/07 10:01:03;;;;;;;1999.90;999.90;;;;;;;;;;6271786;22;20873;-67
2022/07/07 10:03:48;;;;;;;1999.90;999.90;;;;;;;;;;6272349;22;20176;-67
2022/07/07 10:06:35;;;;;;;1999.90;999.90;;;;;;;;;;6272699;22;20276;-67
2022/07/07 10:09:21;;;;;;;1999.90;999.90;;;;;;;;;;6271441;22;20169;-67
2022/07/07 10:12:07;;;;;;;1999.90;999.90;;;;;;;;;;6273227;22;20699;-68
2022/07/07 10:14:55;;;;;;;1999.90;999.90;;;;;;;;;;6273230;22;20219;-67
2022/07/07 10:17:41;;;;;;;1999.90;999.90;;;;;;;;;;6272748;22;20223;-67
2022/07/07 10:20:26;;;;;;;1999.90;999.90;;;;;;;;;;6273252;22;20195;-68
2022/07/07 10:23:12;;;;;;;1999.90;999.90;;;;;;;;;;6273170;22;20164;-68
2022/07/07 10:26:00;;;;;;;1999.90;999.90;;;;;;;;;;6273015;22;20165;-68
2022/07/07 10:28:52;;;;;;;1999.90;999.90;;;;;;;;;;6273072;22;20205;-67
2022/07/07 10:31:37;;;;;;;1999.90;999.90;;;;;;;;;;6274736;22;20198;-68
2022/07/07 10:34:28;;;;;;;1999.90;999.90;;;;;;;;;;6273199;22;20165;-68
2022/07/07 10:37:13;;;;;;;1999.90;999.90;;;;;;;;;;6277057;22;20205;-68
2022/07/07 10:40:02;;;;;;;1999.90;999.90;;;;;;;;;;6276890;22;20826;-69
2022/07/07 10:42:51;;;;;;;1999.90;999.90;;;;;;;;;;6277503;22;20168;-69
2022/07/07 10:45:42;;;;;;;1999.90;999.90;;;;;;;;;;6273231;22;20216;-69
2022/07/07 10:48:43;;;;;;;1999.90;999.90;;;;;;;;;;6272773;22;20201;-68
2022/07/07 10:51:29;;;;;;;1999.90;999.90;;;;;;;;;;6278413;22;20271;-68
2022/07/07 10:54:14;;;;;;;1999.90;999.90;;;;;;;;;;6280940;22;20172;-69
2022/07/07 10:57:14;;;;;;;1999.90;999.90;;;;;;;;;;6279119;22;20167;-69
2022/07/07 11:00:08;;;;;;;1999.90;999.90;;;;;;;;;;6275863;22;20192;-70
2022/07/07 11:03:08;;;;;;;1999.90;999.90;;;;;;;;;;6273912;22;20714;-69
2022/07/07 11:05:56;;;;;;;1999.90;999.90;;;;;;;;;;6272937;22;20172;-69
2022/07/07 11:08:41;;;;;;;1999.90;999.90;;;;;;;;;;6271777;22;20755;-69
2022/07/07 11:11:26;;;;;;;1999.90;999.90;;;;;;;;;;6272983;22;20213;-68
2022/07/07 11:14:13;;;;;;;1999.90;999.90;;;;;;;;;;6276657;22;20167;-69
2022/07/07 11:16:58;;;;;;;1999.90;999.90;;;;;;;;;;6277986;22;20168;-69
2022/07/07 11:19:43;;;;;;;1999.90;999.90;;;;;;;;;;6277957;22;20292;-69
2022/07/07 11:22:42;;;;;;;1999.90;999.90;;;;;;;;;;6280006;22;20546;-67
2022/07/07 11:25:27;;;;;;;1999.90;999.90;;;;;;;;;;6289183;22;20189;-68
2022/07/07 11:28:13;;;;;;;1999.90;999.90;;;;;;;;;;6291347;22;20176;-68
2022/07/07 11:31:04;;;;;;;1999.90;999.90;;;;;;;;;;6282064;22;20202;-69
2022/07/07 11:33:50;;;;;;;1999.90;999.90;;;;;;;;;;6294823;22;20145;-68
2022/07/07 11:36:35;;;;;;;1999.90;999.90;;;;;;;;;;6292843;22;20164;-68
2022/07/07 11:39:20;;;;;;;1999.90;999.90;;;;;;;;;;6294930;22;20412;-69
2022/07/07 11:42:05;;;;;;;1999.90;999.90;;;;;;;;;;6302394;22;20191;-69
2022/07/07 11:44:50;;;;;;;1999.90;999.90;;;;;;;;;;6291347;22;20191;-70
2022/07/07 11:47:37;;;;;;;1999.90;999.90;;;;;;;;;;6300857;22;20201;-70
2022/07/07 11:50:22;;;;;;;1999.90;999.90;;;;;;;;;;6284490;22;20217;-69
2022/07/07 11:53:07;;;;;;;1999.90;999.90;;;;;;;;;;6297194;22;20209;-70
2022/07/07 11:55:52;;;;;;;1999.90;999.90;;;;;;;;;;6288408;22;20415;-69
2022/07/07 11:58:37;;;;;;;1999.90;999.90;;;;;;;;;;6279878;22;20510;-69
2022/07/07 12:01:24;;;;;;;1999.90;999.90;;;;;;;;;;6287202;22;20256;-69
2022/07/07 12:04:17;;;;;;;1999.90;999.90;;;;;;;;;;6291364;22;20194;-69
2022/07/07 12:07:03;;;;;;;1999.90;999.90;;;;;;;;;;6289617;22;20549;-70
2022/07/07 12:09:48;;;;;;;1999.90;999.90;;;;;;;;;;6282863;22;20179;-69
2022/07/07 12:12:33;;;;;;;1999.90;999.90;;;;;;;;;;6291439;22;20202;-69
2022/07/07 12:15:18;;;;;;;1999.90;999.90;;;;;;;;;;6289668;22;20167;-69
2022/07/07 12:18:04;;;;;;;1999.90;999.90;;;;;;;;;;6276846;22;20167;-69
2022/07/07 12:20:57;;;;;;;1999.90;999.90;;;;;;;;;;6279692;22;20268;-69
2022/07/07 12:23:43;;;;;;;1999.90;999.90;;;;;;;;;;6275467;22;20169;-71
2022/07/07 12:26:28;;;;;;;1999.90;999.90;;;;;;;;;;6276237;22;20774;-70
2022/07/07 12:29:13;;;;;;;1999.90;999.90;;;;;;;;;;6275472;22;20652;-69
2022/07/07 12:31:57;;;;;;;1999.90;999.90;;;;;;;;;;6280685;22;20707;-70
2022/07/07 12:34:46;;;;;;;1999.90;999.90;;;;;;;;;;6273849;22;20264;-68
2022/07/07 12:37:42;;;;;;;1999.90;999.90;;;;;;;;;;6274150;22;20577;-69
2022/07/07 12:40:28;;;;;;;1999.90;999.90;;;;;;;;;;6273719;22;20235;-69
2022/07/07 12:43:13;;;;;;;1999.90;999.90;;;;;;;;;;6272725;22;20548;-69
2022/07/07 12:46:04;;;;;;;1999.90;999.90;;;;;;;;;;6272881;22;20176;-69
2022/07/07 12:48:50;;;;;;;1999.90;999.90;;;;;;;;;;6272636;22;20196;-69
2022/07/07 12:51:37;;;;;;;1999.90;999.90;;;;;;;;;;6272654;22;20236;-69
2022/07/07 12:54:24;;;;;;;1999.90;999.90;;;;;;;;;;6270930;22;20458;-69
2022/07/07 12:57:09;;;;;;;1999.90;999.90;;;;;;;;;;6272890;22;20242;-70
2022/07/07 12:59:55;;;;;;;1999.90;999.90;;;;;;;;;;6272585;22;20196;-68
2022/07/07 13:02:40;;;;;;;1999.90;999.90;;;;;;;;;;6272644;22;20204;-69
2022/07/07 13:05:25;;;;;;;1999.90;999.90;;;;;;;;;;6272381;22;20242;-68
2022/07/07 13:08:09;;;;;;;1999.90;999.90;;;;;;;;;;6272167;22;20501;-69
2022/07/07 13:10:56;;;;;;;1999.90;999.90;;;;;;;;;;6272427;22;20203;-70
2022/07/07 13:13:41;;;;;;;1999.90;999.90;;;;;;;;;;6273181;22;20240;-69
2022/07/07 13:16:26;;;;;;;1999.90;999.90;;;;;;;;;;6273832;22;20180;-69
2022/07/07 13:19:11;;;;;;;1999.90;999.90;;;;;;;;;;6271653;22;20503;-70
2022/07/07 13:21:56;;;;;;;1999.90;999.90;;;;;;;;;;6273686;22;20281;-69
2022/07/07 13:24:41;;;;;;;1999.90;999.90;;;;;;;;;;6273640;22;20208;-69
2022/07/07 13:27:27;;;;;;;1999.90;999.90;;;;;;;;;;6273694;22;20686;-69
2022/07/07 13:30:12;;;;;;;1999.90;999.90;;;;;;;;;;6273496;22;20171;-69
2022/07/07 13:32:57;;;;;;;1999.90;999.90;;;;;;;;;;6273630;22;20514;-70
2022/07/07 13:35:42;;;;;;;1999.90;999.90;;;;;;;;;;6272661;22;20379;-70
2022/07/07 13:38:28;;;;;;;1999.90;999.90;;;;;;;;;;6273268;22;20194;-69
2022/07/07 13:41:15;;;;;;;1999.90;999.90;;;;;;;;;;6273636;22;20268;-68
2022/07/07 13:44:01;;;;;;;1999.90;999.90;;;;;;;;;;6273754;22;20170;-69
2022/07/07 13:46:47;;;;;;;1999.90;999.90;;;;;;;;;;6273624;22;20173;-68
2022/07/07 13:49:32;;;;;;;1999.90;999.90;;;;;;;;;;6273292;22;20165;-69
2022/07/07 13:52:17;;;;;;;1999.90;999.90;;;;;;;;;;6273410;22;20202;-69
2022/07/07 13:55:01;;;;;;;1999.90;999.90;;;;;;;;;;6273279;22;20251;-68
2022/07/07 13:57:46;;;;;;;1999.90;999.90;;;;;;;;;;6272297;22;20172;-69
2022/07/07 14:00:33;;;;;;;1999.90;999.90;;;;;;;;;;6272246;22;20194;-69
2022/07/07 14:03:18;;;;;;;1999.90;999.90;;;;;;;;;;6272550;22;20174;-69
2022/07/07 14:06:04;;;;;;;1999.90;999.90;;;;;;;;;;6281245;22;20492;-69
2022/07/07 14:08:49;;;;;;;1999.90;999.90;;;;;;;;;;6278268;22;20255;-70
2022/07/07 14:11:34;;;;;;;1999.90;999.90;;;;;;;;;;6276694;22;20198;-69
2022/07/07 14:14:19;;;;;;;1999.90;999.90;;;;;;;;;;6280519;22;20183;-70
2022/07/07 14:17:06;;;;;;;1999.90;999.90;;;;;;;;;;6288903;22;20194;-69
2022/07/07 14:19:51;;;;;;;1999.90;999.90;;;;;;;;;;6288019;22;20460;-69
2022/07/07 14:22:36;;;;;;;1999.90;999.90;;;;;;;;;;6282473;22;20203;-69
2022/07/07 14:25:21;;;;;;;1999.90;999.90;;;;;;;;;;6286855;22;20170;-69
2022/07/07 14:28:06;;;;;;;1999.90;999.90;;;;;;;;;;6278962;22;20214;-69
2022/07/07 14:30:51;;;;;;;1999.90;999.90;;;;;;;;;;6288387;22;20224;-69
2022/07/07 14:33:37;;;;;;;1999.90;999.90;;;;;;;;;;6284818;22;20169;-69
2022/07/07 14:36:23;;;;;;;1999.90;999.90;;;;;;;;;;6294163;22;20174;-69
2022/07/07 14:39:08;;;;;;;1999.90;999.90;;;;;;;;;;6274477;22;20238;-70
2022/07/07 14:41:53;;;;;;;1999.90;999.90;;;;;;;;;;6289817;22;20246;-71
2022/07/07 14:44:38;;;;;;;1999.90;999.90;;;;;;;;;;6288766;22;20426;-70
2022/07/07 14:47:24;;;;;;;1999.90;999.90;;;;;;;;;;6281698;22;20214;-69
2022/07/07 14:50:10;;;;;;;1999.90;999.90;;;;;;;;;;6282168;22;20609;-69
2022/07/07 14:52:55;;;;;;;1999.90;999.90;;;;;;;;;;6288079;22;20217;-71
2022/07/07 14:55:40;;;;;;;1999.90;999.90;;;;;;;;;;6289113;22;20176;-70
2022/07/07 14:58:25;;;;;;;1999.90;999.90;;;;;;;;;;6288930;22;20196;-70
2022/07/07 15:01:10;;;;;;;1999.90;999.90;;;;;;;;;;6275305;22;20488;-70
2022/07/07 15:03:55;;;;;;;1999.90;999.90;;;;;;;;;;6278909;22;20669;-69
2022/07/07 15:06:42;;;;;;;1999.90;999.90;;;;;;;;;;6275748;22;20178;-71
2022/07/07 15:09:27;;;;;;;1999.90;999.90;;;;;;;;;;6275160;22;20166;-69
2022/07/07 15:12:12;;;;;;;1999.90;999.90;;;;;;;;;;6280173;22;20205;-70
2022/07/07 15:14:58;;;;;;;1999.90;999.90;;;;;;;;;;6286953;22;20199;-71
2022/07/07 15:17:43;;;;;;;1999.90;999.90;;;;;;;;;;6271451;22;20214;-71
2022/07/07 15:20:29;;;;;;;1999.90;999.90;;;;;;;;;;6271758;22;20195;-70
2022/07/07 15:23:16;;;;;;;1999.90;999.90;;;;;;;;;;6282191;22;20199;-71
2022/07/07 15:26:01;;;;;;;1999.90;999.90;;;;;;;;;;6281662;22;20163;-70
2022/07/07 15:28:46;;;;;;;1999.90;999.90;;;;;;;;;;6276300;22;20590;-71
2022/07/07 15:31:31;;;;;;;1999.90;999.90;;;;;;;;;;6290099;22;20203;-71
2022/07/07 15:34:16;;;;;;;1999.90;999.90;;;;;;;;;;6277687;22;20182;-70
2022/07/07 15:37:05;;;;;;;1999.90;999.90;;;;;;;;;;6287200;22;20190;-70
2022/07/07 15:39:52;;;;;;;1999.90;999.90;;;;;;;;;;6287483;22;20259;-70
2022/07/07 15:42:37;;;;;;;1999.90;999.90;;;;;;;;;;6290825;22;20199;-71
2022/07/07 15:45:22;;;;;;;1999.90;999.90;;;;;;;;;;6292237;22;20335;-70
2022/07/07 15:48:08;;;;;;;1999.90;999.90;;;;;;;;;;6280568;22;20223;-70
2022/07/07 15:50:53;;;;;;;1999.90;999.90;;;;;;;;;;6288477;22;20293;-70
2022/07/07 15:53:39;;;;;;;1999.90;999.90;;;;;;;;;;6284323;22;20267;-69
2022/07/07 15:56:25;;;;;;;1999.90;999.90;;;;;;;;;;6294858;22;20166;-71
2022/07/07 15:59:11;;;;;;;1999.90;999.90;;;;;;;;;;6298474;22;20268;-70
2022/07/07 16:01:56;;;;;;;1999.90;999.90;;;;;;;;;;6298879;22;20238;-70
2022/07/07 16:04:41;;;;;;;1999.90;999.90;;;;;;;;;;6288680;22;20184;-70
2022/07/07 16:07:28;;;;;;;1999.90;999.90;;;;;;;;;;6293884;22;20165;-70
2022/07/07 16:10:13;;;;;;;1999.90;999.90;;;;;;;;;;6290245;22;20160;-71
2022/07/07 16:12:59;;;;;;;1999.90;999.90;;;;;;;;;;6299988;22;20162;-71
2022/07/07 16:15:44;;;;;;;1999.90;999.90;;;;;;;;;;6299789;22;20168;-71
2022/07/07 16:18:29;;;;;;;1999.90;999.90;;;;;;;;;;6297278;22;20164;-70
2022/07/07 16:21:15;;;;;;;1999.90;999.90;;;;;;;;;;6286627;22;20251;-70
2022/07/07 16:24:01;;;;;;;1999.90;999.90;;;;;;;;;;6287036;22;20176;-70
2022/07/07 16:26:46;;;;;;;1999.90;999.90;;;;;;;;;;6295753;22;20162;-69
2022/07/07 16:29:33;;;;;;;1999.90;999.90;;;;;;;;;;6290464;22;20209;-69
2022/07/07 16:32:18;;;;;;;1999.90;999.90;;;;;;;;;;6281244;22;20391;-70
2022/07/07 16:35:03;;;;;;;1999.90;999.90;;;;;;;;;;6277464;22;20215;-70
2022/07/07 16:37:48;;;;;;;1999.90;999.90;;;;;;;;;;6300753;22;20160;-70
2022/07/07 16:40:33;;;;;;;1999.90;999.90;;;;;;;;;;6291085;22;20183;-70
2022/07/07 16:43:19;;;;;;;1999.90;999.90;;;;;;;;;;6295093;22;20622;-71
2022/07/07 16:46:05;;;;;;;1999.90;999.90;;;;;;;;;;6276625;22;20213;-70
2022/07/07 16:48:51;;;;;;;1999.90;999.90;;;;;;;;;;6278837;22;20168;-69
2022/07/07 16:51:36;;;;;;;1999.90;999.90;;;;;;;;;;6275476;22;20283;-71
2022/07/07 16:54:21;;;;;;;1999.90;999.90;;;;;;;;;;6275782;22;20174;-69
2022/07/07 16:57:07;;;;;;;1999.90;999.90;;;;;;;;;;6279656;22;20238;-69
2022/07/07 16:59:52;;;;;;;1999.90;999.90;;;;;;;;;;6287538;22;20237;-69
2022/07/07 17:02:38;;;;;;;1999.90;999.90;;;;;;;;;;6288629;22;20423;-70
2022/07/07 17:05:23;;;;;;;1999.90;999.90;;;;;;;;;;6281990;22;20174;-71
2022/07/07 17:08:08;;;;;;;1999.90;999.90;;;;;;;;;;6278659;22;20664;-71
2022/07/07 17:10:53;;;;;;;1999.90;999.90;;;;;;;;;;6280515;22;20226;-71
2022/07/07 17:13:39;;;;;;;1999.90;999.90;;;;;;;;;;6283628;22;20211;-70
2022/07/07 17:16:23;;;;;;;1999.90;999.90;;;;;;;;;;6273605;22;20619;-70
2022/07/07 17:19:10;;;;;;;1999.90;999.90;;;;;;;;;;6272345;22;20361;-69
2022/07/07 17:21:55;;;;;;;1999.90;999.90;;;;;;;;;;6272975;22;20208;-70
2022/07/07 17:24:40;;;;;;;1999.90;999.90;;;;;;;;;;6273893;22;20632;-69
2022/07/07 17:27:25;;;;;;;1999.90;999.90;;;;;;;;;;6273883;22;20295;-70
2022/07/07 17:30:11;;;;;;;1999.90;999.90;;;;;;;;;;6273939;22;20697;-69
2022/07/07 17:32:56;;;;;;;1999.90;999.90;;;;;;;;;;6273744;22;20177;-71
2022/07/07 17:35:43;;;;;;;1999.90;999.90;;;;;;;;;;6275694;22;20169;-71
2022/07/07 17:38:28;;;;;;;1999.90;999.90;;;;;;;;;;6274232;22;20215;-70
2022/07/07 17:41:13;;;;;;;1999.90;999.90;;;;;;;;;;6280534;22;20285;-71
2022/07/07 17:43:58;;;;;;;1999.90;999.90;;;;;;;;;;6277974;22;20223;-71
2022/07/07 17:46:43;;;;;;;1999.90;999.90;;;;;;;;;;6292392;22;20217;-72
2022/07/07 17:49:28;;;;;;;1999.90;999.90;;;;;;;;;;6295279;22;20218;-71
2022/07/07 17:52:14;;;;;;;1999.90;999.90;;;;;;;;;;6294802;22;20399;-71
2022/07/07 17:54:59;;;;;;;1999.90;999.90;;;;;;;;;;6296696;22;20220;-71
2022/07/07 17:57:44;;;;;;;1999.90;999.90;;;;;;;;;;6293092;22;20188;-72
2022/07/07 18:00:29;;;;;;;1999.90;999.90;;;;;;;;;;6288458;22;20703;-70
2022/07/07 18:03:15;;;;;;;1999.90;999.90;;;;;;;;;;6273973;22;20207;-70
2022/07/07 18:05:59;;;;;;;1999.90;999.90;;;;;;;;;;6272623;22;20442;-70
2022/07/07 18:08:46;;;;;;;1999.90;999.90;;;;;;;;;;6272818;22;20165;-70
2022/07/07 18:11:31;;;;;;;1999.90;999.90;;;;;;;;;;6273024;22;20199;-70
2022/07/07 18:14:16;;;;;;;1999.90;999.90;;;;;;;;;;6273216;22;20172;-70
2022/07/07 18:17:01;;;;;;;1999.90;999.90;;;;;;;;;;6273364;22;20512;-70
2022/07/07 18:19:46;;;;;;;1999.90;999.90;;;;;;;;;;6272029;22;20168;-70
2022/07/07 18:22:31;;;;;;;1999.90;999.90;;;;;;;;;;6271447;22;20220;-70
2022/07/07 18:25:20;;;;;;;1999.90;999.90;;;;;;;;;;6271401;22;20706;-70
2022/07/07 18:28:05;;;;;;;1999.90;999.90;;;;;;;;;;6272862;22;20653;-70
2022/07/07 18:30:51;;;;;;;1999.90;999.90;;;;;;;;;;6274112;22;20537;-70
2022/07/07 18:33:36;;;;;;;1999.90;999.90;;;;;;;;;;6273654;22;20260;-70
2022/07/07 18:36:21;;;;;;;1999.90;999.90;;;;;;;;;;6272917;22;20163;-70
2022/07/07 18:39:06;;;;;;;1999.90;999.90;;;;;;;;;;6273632;22;20179;-70
2022/07/07 18:41:53;;;;;;;1999.90;999.90;;;;;;;;;;6273194;22;20200;-70
2022/07/07 18:44:38;;;;;;;1999.90;999.90;;;;;;;;;;6273788;22;20293;-70
2022/07/07 18:47:22;;;;;;;1999.90;999.90;;;;;;;;;;6274884;22;20163;-70
2022/07/07 18:50:08;;;;;;;1999.90;999.90;;;;;;;;;;6273821;22;20175;-70
2022/07/07 18:52:53;;;;;;;1999.90;999.90;;;;;;;;;;6273211;22;20834;-71
2022/07/07 18:55:38;;;;;;;1999.90;999.90;;;;;;;;;;6274934;22;20172;-70
2022/07/07 18:58:25;;;;;;;1999.90;999.90;;;;;;;;;;6273403;22;20164;-69
2022/07/07 19:01:09;;;;;;;1999.90;999.90;;;;;;;;;;6273569;22;20214;-69
2022/07/07 19:03:54;;;;;;;1999.90;999.90;;;;;;;;;;6272426;22;20657;-69
2022/07/07 19:06:39;;;;;;;1999.90;999.90;;;;;;;;;;6273189;22;20168;-70
2022/07/07 19:09:24;;;;;;;1999.90;999.90;;;;;;;;;;6272996;22;20183;-70
2022/07/07 19:12:10;;;;;;;1999.90;999.90;;;;;;;;;;6274155;22;20196;-70
2022/07/07 19:14:56;;;;;;;1999.90;999.90;;;;;;;;;;6273350;22;20164;-70
2022/07/07 19:17:41;;;;;;;1999.90;999.90;;;;;;;;;;6275245;22;20213;-70
2022/07/07 19:20:26;;;;;;;1999.90;999.90;;;;;;;;;;6274192;22;20207;-69
2022/07/07 19:23:11;;;;;;;1999.90;999.90;;;;;;;;;;6272539;22;20191;-69
2022/07/07 19:25:56;;;;;;;1999.90;999.90;;;;;;;;;;6273500;22;20180;-70
2022/07/07 19:28:41;;;;;;;1999.90;999.90;;;;;;;;;;6272439;22;20164;-70